createdAt,value
2019-04-30T00:00:12.006Z,0.00
2019-04-30T00:01:16.985Z,0.00
2019-04-30T00:02:12.019Z,0.00
2019-04-30T00:03:18.016Z,0.00
2019-04-30T00:04:12.030Z,0.00
2019-04-30T00:05:15.148Z,0.00
2019-04-30T00:06:12.041Z,0.00
2019-04-30T00:07:15.502Z,0.00
2019-04-30T00:08:12.056Z,0.00
2019-04-30T00:09:17.098Z,0.00
2019-04-30T00:10:12.070Z,0.00
2019-04-30T00:11:15.972Z,0.00
2019-04-30T00:12:12.084Z,0.00
2019-04-30T00:13:17.816Z,0.00
2019-04-30T00:14:12.095Z,0.00
2019-04-30T00:15:16.190Z,0.00
2019-04-30T00:16:12.113Z,0.00
2019-04-30T00:17:15.970Z,0.00
2019-04-30T00:18:12.126Z,0.00
2019-04-30T00:19:15.867Z,0.00
2019-04-30T00:20:12.132Z,0.00
2019-04-30T00:21:15.192Z,0.00
2019-04-30T00:22:12.150Z,0.00
2019-04-30T00:23:12.158Z,0.00
2019-04-30T00:24:12.166Z,0.00
2019-04-30T00:25:12.170Z,0.00
2019-04-30T00:26:12.178Z,0.00
2019-04-30T00:27:12.185Z,0.00
2019-04-30T00:28:12.193Z,0.00
2019-04-30T00:29:12.216Z,0.00
2019-04-30T00:30:12.205Z,0.00
2019-04-30T00:31:12.210Z,0.00
2019-04-30T00:32:12.217Z,0.00
2019-04-30T00:33:15.235Z,0.00
2019-04-30T00:34:12.231Z,0.00
2019-04-30T00:35:16.277Z,0.00
2019-04-30T00:36:12.244Z,0.00
2019-04-30T00:37:14.041Z,0.00
2019-04-30T00:38:12.260Z,0.00
2019-04-30T00:39:13.246Z,0.00
2019-04-30T00:40:12.273Z,0.00
2019-04-30T00:41:12.280Z,0.00
2019-04-30T00:42:12.284Z,0.00
2019-04-30T00:43:12.291Z,0.00
2019-04-30T00:44:12.304Z,0.00
2019-04-30T00:45:12.304Z,0.00
2019-04-30T00:46:12.309Z,0.00
2019-04-30T00:47:12.317Z,0.00
2019-04-30T00:48:12.329Z,0.00
2019-04-30T00:49:18.284Z,0.00
2019-04-30T00:50:12.341Z,0.00
2019-04-30T00:51:17.898Z,0.00
2019-04-30T00:52:12.359Z,0.00
2019-04-30T00:53:14.302Z,0.00
2019-04-30T00:54:12.367Z,0.00
2019-04-30T00:55:12.374Z,0.00
2019-04-30T00:56:12.381Z,0.00
2019-04-30T00:57:12.390Z,0.00
2019-04-30T00:58:12.395Z,0.00
2019-04-30T00:59:12.402Z,0.00
2019-04-30T01:00:12.409Z,0.00
2019-04-30T01:01:12.426Z,0.00
2019-04-30T01:02:12.426Z,0.00
2019-04-30T01:03:12.426Z,0.00
2019-04-30T01:04:24.533Z,0.00
2019-04-30T01:06:24.011Z,0.00
2019-04-30T01:07:16.949Z,0.00
2019-04-30T01:09:21.436Z,0.00
2019-04-30T01:10:24.849Z,0.00
2019-04-30T01:12:31.025Z,0.00
2019-04-30T01:13:25.916Z,0.00
2019-04-30T01:14:28.338Z,0.00
2019-04-30T01:15:25.928Z,0.00
2019-04-30T01:16:30.154Z,0.00
2019-04-30T01:17:25.942Z,0.00
2019-04-30T01:18:30.746Z,0.00
2019-04-30T01:19:30.128Z,0.00
2019-04-30T01:20:33.132Z,0.00
2019-04-30T01:22:32.868Z,0.00
2019-04-30T01:23:30.436Z,0.00
2019-04-30T01:25:34.926Z,0.00
2019-04-30T01:26:34.918Z,0.00
2019-04-30T01:28:38.925Z,0.00
2019-04-30T01:29:44.127Z,0.00
2019-04-30T01:31:37.518Z,0.00
2019-04-30T01:32:32.333Z,0.00
2019-04-30T01:34:36.329Z,0.00
2019-04-30T01:35:36.331Z,0.00
2019-04-30T01:37:40.817Z,0.00
2019-04-30T01:38:44.864Z,0.00
2019-04-30T01:40:47.445Z,0.00
2019-04-30T01:41:45.289Z,0.00
2019-04-30T01:43:49.775Z,0.00
2019-04-30T01:44:53.612Z,0.00
2019-04-30T01:46:54.261Z,0.00
2019-04-30T01:47:54.250Z,0.00
2019-04-30T01:50:01.046Z,0.00
2019-04-30T01:51:01.098Z,0.00
2019-04-30T01:53:04.765Z,0.00
2019-04-30T01:54:03.214Z,0.00
2019-04-30T01:56:09.028Z,0.00
2019-04-30T01:57:07.219Z,0.00
2019-04-30T01:59:11.226Z,0.00
2019-04-30T02:00:11.232Z,0.00
2019-04-30T02:02:15.223Z,0.00
2019-04-30T02:03:15.224Z,0.00
2019-04-30T02:05:19.701Z,0.00
2019-04-30T02:06:19.814Z,0.00
2019-04-30T02:08:24.184Z,0.00
2019-04-30T02:09:24.181Z,0.00
2019-04-30T02:11:19.000Z,0.00
2019-04-30T02:12:21.662Z,0.00
2019-04-30T02:14:22.069Z,0.00
2019-04-30T02:15:22.064Z,0.00
2019-04-30T02:17:26.552Z,0.00
2019-04-30T02:18:26.545Z,0.00
2019-04-30T02:20:30.548Z,0.00
2019-04-30T02:21:33.220Z,0.00
2019-04-30T02:23:34.549Z,0.00
2019-04-30T02:24:34.542Z,0.00
2019-04-30T02:26:38.546Z,0.00
2019-04-30T02:27:39.058Z,0.00
2019-04-30T02:29:43.019Z,0.00
2019-04-30T02:30:43.012Z,0.00
2019-04-30T02:32:52.101Z,0.00
2019-04-30T02:33:50.091Z,0.00
2019-04-30T02:35:51.479Z,0.00
2019-04-30T02:36:51.485Z,0.00
2019-04-30T02:38:55.974Z,0.00
2019-04-30T02:39:55.974Z,0.00
2019-04-30T02:41:50.648Z,0.00
2019-04-30T02:42:49.824Z,0.00
2019-04-30T02:44:53.879Z,0.00
2019-04-30T02:45:53.848Z,0.00
2019-04-30T02:47:59.406Z,0.00
2019-04-30T02:48:59.765Z,0.00
2019-04-30T02:50:11.570Z,0.00
2019-04-30T02:51:00.033Z,0.00
2019-04-30T02:51:59.560Z,0.00
2019-04-30T02:53:02.586Z,0.00
2019-04-30T02:54:00.394Z,0.00
2019-04-30T02:54:59.403Z,0.00
2019-04-30T02:55:59.542Z,0.00
2019-04-30T02:56:59.599Z,0.00
2019-04-30T02:57:59.549Z,0.00
2019-04-30T02:59:00.376Z,0.00
2019-04-30T02:59:59.983Z,0.00
2019-04-30T03:01:00.091Z,0.00
2019-04-30T03:01:59.815Z,0.00
2019-04-30T03:03:00.158Z,0.00
2019-04-30T03:03:59.834Z,0.00
2019-04-30T03:05:00.271Z,0.00
2019-04-30T03:05:59.551Z,0.00
2019-04-30T03:06:59.765Z,0.00
2019-04-30T03:08:00.381Z,0.00
2019-04-30T03:09:00.721Z,0.00
2019-04-30T03:09:59.811Z,0.00
2019-04-30T03:11:00.093Z,0.00
2019-04-30T03:12:00.306Z,0.00
2019-04-30T03:12:59.992Z,0.00
2019-04-30T03:13:59.295Z,0.00
2019-04-30T03:15:00.464Z,0.00
2019-04-30T03:15:59.272Z,0.00
2019-04-30T03:17:00.165Z,0.00
2019-04-30T03:18:00.377Z,0.00
2019-04-30T03:18:59.506Z,0.00
2019-04-30T03:20:00.224Z,0.00
2019-04-30T03:20:59.889Z,0.00
2019-04-30T03:22:00.191Z,0.00
2019-04-30T03:23:02.039Z,0.00
2019-04-30T03:24:00.683Z,0.00
2019-04-30T03:24:59.831Z,0.00
2019-04-30T03:25:59.766Z,0.00
2019-04-30T03:26:59.445Z,0.00
2019-04-30T03:28:00.257Z,0.00
2019-04-30T03:29:00.829Z,0.00
2019-04-30T03:30:00.085Z,0.00
2019-04-30T03:31:03.830Z,0.00
2019-04-30T03:32:02.371Z,0.00
2019-04-30T03:33:02.162Z,0.00
2019-04-30T03:34:01.966Z,0.00
2019-04-30T03:35:02.931Z,0.00
2019-04-30T03:36:02.343Z,0.00
2019-04-30T03:37:01.668Z,0.00
2019-04-30T03:37:59.315Z,0.00
2019-04-30T03:38:59.978Z,0.00
2019-04-30T03:40:00.551Z,0.00
2019-04-30T03:41:00.187Z,0.00
2019-04-30T03:41:59.735Z,0.00
2019-04-30T03:42:59.710Z,0.00
2019-04-30T03:44:16.803Z,0.00
2019-04-30T03:44:59.230Z,0.00
2019-04-30T03:45:59.428Z,0.00
2019-04-30T03:46:59.313Z,0.00
2019-04-30T03:48:00.325Z,0.00
2019-04-30T03:49:00.196Z,0.00
2019-04-30T03:49:59.983Z,0.00
2019-04-30T03:51:00.904Z,0.00
2019-04-30T03:51:59.816Z,0.00
2019-04-30T03:53:00.436Z,0.00
2019-04-30T03:53:59.555Z,0.00
2019-04-30T03:54:59.661Z,0.00
2019-04-30T03:56:01.285Z,0.00
2019-04-30T03:57:00.677Z,0.00
2019-04-30T03:58:00.061Z,0.00
2019-04-30T03:59:00.255Z,0.00
2019-04-30T03:59:59.418Z,0.00
2019-04-30T04:01:00.382Z,0.00
2019-04-30T04:01:59.565Z,0.00
2019-04-30T04:02:59.894Z,0.00
2019-04-30T04:04:00.467Z,0.00
2019-04-30T04:05:01.143Z,0.00
2019-04-30T04:05:59.512Z,0.00
2019-04-30T04:07:00.075Z,0.00
2019-04-30T04:07:59.902Z,0.00
2019-04-30T04:09:00.232Z,0.00
2019-04-30T04:09:59.796Z,0.00
2019-04-30T04:11:00.480Z,0.00
2019-04-30T04:11:59.961Z,0.00
2019-04-30T04:12:59.712Z,0.00
2019-04-30T04:13:59.684Z,0.00
2019-04-30T04:15:03.395Z,0.00
2019-04-30T04:16:00.007Z,0.00
2019-04-30T04:17:00.039Z,0.00
2019-04-30T04:18:00.370Z,0.00
2019-04-30T04:18:59.473Z,0.00
2019-04-30T04:19:59.914Z,0.00
2019-04-30T04:21:08.783Z,0.00
2019-04-30T04:22:00.143Z,0.00
2019-04-30T04:22:59.894Z,0.00
2019-04-30T04:24:00.223Z,0.00
2019-04-30T04:25:00.130Z,0.00
2019-04-30T04:25:59.546Z,0.00
2019-04-30T04:26:59.654Z,0.00
2019-04-30T04:28:00.352Z,0.00
2019-04-30T04:28:59.466Z,0.00
2019-04-30T04:30:01.192Z,0.00
2019-04-30T04:31:00.160Z,0.00
2019-04-30T04:32:00.876Z,5.63
2019-04-30T04:32:59.909Z,5.63
2019-04-30T04:34:00.032Z,5.63
2019-04-30T04:35:00.203Z,5.63
2019-04-30T04:35:59.772Z,5.63
2019-04-30T04:37:00.064Z,5.63
2019-04-30T04:38:00.374Z,5.63
2019-04-30T04:39:00.138Z,5.63
2019-04-30T04:39:59.587Z,5.63
2019-04-30T04:41:02.571Z,5.63
2019-04-30T04:42:00.014Z,5.63
2019-04-30T04:43:00.340Z,5.63
2019-04-30T04:44:00.217Z,5.63
2019-04-30T04:44:59.457Z,5.63
2019-04-30T04:45:59.446Z,5.63
2019-04-30T04:47:00.125Z,5.63
2019-04-30T04:48:00.093Z,5.63
2019-04-30T04:48:59.611Z,5.63
2019-04-30T04:50:00.736Z,5.63
2019-04-30T04:51:00.097Z,5.63
2019-04-30T04:51:59.254Z,5.63
2019-04-30T04:52:59.497Z,5.63
2019-04-30T04:54:00.189Z,5.63
2019-04-30T04:55:00.432Z,5.63
2019-04-30T04:55:59.916Z,5.63
2019-04-30T04:57:13.944Z,5.63
2019-04-30T04:57:59.827Z,5.63
2019-04-30T04:59:00.223Z,5.63
2019-04-30T05:00:04.859Z,5.63
2019-04-30T05:00:59.260Z,5.63
2019-04-30T05:01:59.819Z,5.63
2019-04-30T05:02:59.379Z,5.63
2019-04-30T05:03:59.161Z,5.63
2019-04-30T05:04:59.980Z,5.63
2019-04-30T05:06:02.286Z,11.25
2019-04-30T05:07:00.145Z,11.25
2019-04-30T05:07:58.808Z,11.25
2019-04-30T05:08:59.518Z,11.25
2019-04-30T05:10:00.600Z,11.25
2019-04-30T05:10:59.452Z,11.25
2019-04-30T05:11:58.837Z,11.25
2019-04-30T05:12:59.258Z,11.25
2019-04-30T05:13:58.975Z,11.25
2019-04-30T05:14:59.798Z,16.88
2019-04-30T05:15:59.407Z,11.25
2019-04-30T05:16:58.873Z,11.25
2019-04-30T05:17:59.267Z,11.25
2019-04-30T05:19:01.105Z,11.25
2019-04-30T05:19:58.956Z,11.25
2019-04-30T05:20:59.130Z,11.25
2019-04-30T05:21:59.675Z,11.25
2019-04-30T05:22:58.910Z,11.25
2019-04-30T05:23:59.142Z,11.25
2019-04-30T05:24:59.111Z,11.25
2019-04-30T05:25:59.010Z,16.88
2019-04-30T05:26:58.931Z,16.88
2019-04-30T05:27:58.941Z,22.50
2019-04-30T05:28:59.456Z,22.50
2019-04-30T05:29:59.561Z,22.50
2019-04-30T05:30:59.439Z,22.50
2019-04-30T05:31:58.965Z,16.88
2019-04-30T05:32:58.996Z,16.88
2019-04-30T05:33:58.980Z,16.88
2019-04-30T05:34:58.988Z,11.25
2019-04-30T05:35:59.420Z,11.25
2019-04-30T05:37:01.005Z,11.25
2019-04-30T05:37:59.346Z,11.25
2019-04-30T05:38:59.014Z,11.25
2019-04-30T05:40:00.998Z,11.25
2019-04-30T05:40:59.562Z,11.25
2019-04-30T05:41:59.051Z,11.25
2019-04-30T05:43:00.364Z,11.25
2019-04-30T05:43:59.284Z,11.25
2019-04-30T05:44:59.289Z,16.88
2019-04-30T05:45:59.060Z,16.88
2019-04-30T05:46:59.269Z,16.88
2019-04-30T05:47:59.080Z,16.88
2019-04-30T05:48:59.439Z,16.88
2019-04-30T05:49:59.088Z,22.50
2019-04-30T05:50:59.256Z,22.50
2019-04-30T05:51:59.391Z,28.13
2019-04-30T05:52:59.224Z,28.13
2019-04-30T05:53:59.341Z,28.13
2019-04-30T05:55:00.109Z,28.13
2019-04-30T05:55:59.445Z,33.75
2019-04-30T05:56:59.451Z,28.13
2019-04-30T05:58:01.402Z,28.13
2019-04-30T05:58:59.376Z,33.75
2019-04-30T05:59:59.155Z,28.13
2019-04-30T06:00:59.683Z,28.13
2019-04-30T06:01:59.323Z,28.13
2019-04-30T06:02:59.551Z,33.75
2019-04-30T06:03:59.532Z,33.75
2019-04-30T06:04:59.190Z,28.13
2019-04-30T06:05:59.199Z,28.13
2019-04-30T06:06:59.201Z,28.13
2019-04-30T06:07:59.385Z,28.13
2019-04-30T06:09:06.240Z,28.13
2019-04-30T06:09:59.665Z,39.38
2019-04-30T06:10:59.732Z,45.00
2019-04-30T06:11:59.236Z,50.63
2019-04-30T06:12:59.486Z,56.25
2019-04-30T06:13:59.244Z,50.63
2019-04-30T06:14:59.255Z,50.63
2019-04-30T06:15:59.262Z,56.25
2019-04-30T06:16:59.726Z,61.88
2019-04-30T06:18:02.892Z,61.88
2019-04-30T06:18:59.283Z,67.50
2019-04-30T06:19:59.290Z,67.50
2019-04-30T06:20:59.548Z,73.13
2019-04-30T06:22:05.842Z,67.50
2019-04-30T06:22:59.760Z,61.88
2019-04-30T06:23:59.315Z,61.88
2019-04-30T06:24:59.540Z,61.88
2019-04-30T06:26:06.921Z,56.25
2019-04-30T06:26:59.367Z,50.63
2019-04-30T06:27:59.343Z,50.63
2019-04-30T06:28:59.402Z,50.63
2019-04-30T06:29:59.361Z,56.25
2019-04-30T06:30:59.366Z,56.25
2019-04-30T06:31:59.371Z,61.88
2019-04-30T06:32:59.425Z,67.50
2019-04-30T06:33:59.385Z,67.50
2019-04-30T06:34:59.389Z,73.13
2019-04-30T06:35:59.395Z,78.75
2019-04-30T06:36:59.605Z,90.00
2019-04-30T06:37:59.408Z,84.38
2019-04-30T06:38:59.416Z,73.13
2019-04-30T06:39:59.424Z,67.50
2019-04-30T06:40:59.432Z,73.13
2019-04-30T06:42:06.882Z,61.88
2019-04-30T06:43:00.829Z,61.88
2019-04-30T06:43:59.450Z,61.88
2019-04-30T06:44:59.461Z,50.63
2019-04-30T06:45:59.464Z,50.63
2019-04-30T06:47:01.262Z,45.00
2019-04-30T06:47:59.476Z,50.63
2019-04-30T06:48:59.604Z,45.00
2019-04-30T06:50:01.355Z,45.00
2019-04-30T06:50:59.498Z,45.00
2019-04-30T06:51:59.503Z,39.38
2019-04-30T06:53:01.664Z,39.38
2019-04-30T06:53:59.522Z,45.00
2019-04-30T06:54:59.701Z,45.00
2019-04-30T06:55:59.533Z,45.00
2019-04-30T06:56:59.666Z,45.00
2019-04-30T06:58:11.518Z,45.00
2019-04-30T06:58:59.552Z,39.38
2019-04-30T06:59:59.718Z,45.00
2019-04-30T07:00:59.692Z,45.00
2019-04-30T07:01:59.576Z,50.63
2019-04-30T07:02:59.580Z,56.25
2019-04-30T07:04:01.014Z,50.63
2019-04-30T07:04:59.599Z,56.25
2019-04-30T07:05:59.601Z,56.25
2019-04-30T07:06:59.607Z,61.88
2019-04-30T07:08:07.170Z,56.25
2019-04-30T07:08:59.722Z,56.25
2019-04-30T07:10:01.253Z,56.25
2019-04-30T07:11:03.941Z,56.25
2019-04-30T07:11:59.677Z,45.00
2019-04-30T07:12:59.650Z,50.63
2019-04-30T07:14:00.122Z,50.63
2019-04-30T07:14:59.664Z,56.25
2019-04-30T07:15:59.673Z,50.63
2019-04-30T07:16:59.677Z,45.00
2019-04-30T07:17:59.684Z,45.00
2019-04-30T07:18:59.695Z,50.63
2019-04-30T07:19:59.836Z,50.63
2019-04-30T07:20:59.704Z,45.00
2019-04-30T07:21:59.714Z,39.38
2019-04-30T07:23:03.064Z,33.75
2019-04-30T07:23:59.789Z,45.00
2019-04-30T07:24:59.778Z,39.38
2019-04-30T07:25:59.741Z,33.75
2019-04-30T07:27:02.640Z,33.75
2019-04-30T07:27:59.946Z,33.75
2019-04-30T07:29:02.583Z,28.13
2019-04-30T07:29:59.763Z,28.13
2019-04-30T07:31:10.709Z,22.50
2019-04-30T07:31:59.782Z,28.13
2019-04-30T07:32:59.792Z,22.50
2019-04-30T07:33:59.830Z,22.50
2019-04-30T07:34:59.800Z,28.13
2019-04-30T07:36:01.718Z,22.50
2019-04-30T07:37:11.809Z,22.50
2019-04-30T07:38:04.740Z,22.50
2019-04-30T07:39:00.106Z,22.50
2019-04-30T07:39:59.831Z,22.50
2019-04-30T07:40:59.840Z,28.13
2019-04-30T07:42:00.057Z,28.13
2019-04-30T07:42:59.854Z,28.13
2019-04-30T07:43:59.862Z,28.13
2019-04-30T07:45:00.701Z,33.75
2019-04-30T07:45:59.892Z,33.75
2019-04-30T07:47:02.021Z,33.75
2019-04-30T07:47:59.893Z,33.75
2019-04-30T07:49:00.120Z,33.75
2019-04-30T07:50:00.711Z,39.38
2019-04-30T07:50:59.910Z,39.38
2019-04-30T07:52:01.512Z,39.38
2019-04-30T07:53:05.655Z,39.38
2019-04-30T07:53:59.933Z,39.38
2019-04-30T07:55:00.727Z,45.00
2019-04-30T07:55:59.946Z,45.00
2019-04-30T07:57:00.492Z,45.00
2019-04-30T07:57:59.960Z,45.00
2019-04-30T07:59:00.786Z,45.00
2019-04-30T08:00:00.679Z,45.00
2019-04-30T08:00:59.981Z,45.00
2019-04-30T08:02:07.643Z,45.00
2019-04-30T08:03:00.043Z,45.00
2019-04-30T08:04:00.001Z,45.00
2019-04-30T08:05:00.022Z,45.00
2019-04-30T08:06:00.180Z,45.00
2019-04-30T08:07:00.350Z,45.00
2019-04-30T08:08:16.209Z,45.00
2019-04-30T08:09:01.093Z,45.00
2019-04-30T08:10:00.042Z,45.00
2019-04-30T08:11:00.049Z,39.38
2019-04-30T08:12:00.092Z,39.38
2019-04-30T08:13:08.357Z,39.38
2019-04-30T08:14:00.352Z,39.38
2019-04-30T08:15:00.081Z,45.00
2019-04-30T08:16:00.085Z,45.00
2019-04-30T08:17:00.093Z,50.63
2019-04-30T08:18:05.486Z,45.00
2019-04-30T08:19:00.103Z,45.00
2019-04-30T08:20:00.112Z,45.00
2019-04-30T08:21:00.969Z,45.00
2019-04-30T08:22:00.126Z,45.00
2019-04-30T08:23:13.013Z,45.00
2019-04-30T08:24:01.086Z,45.00
2019-04-30T08:25:00.148Z,50.63
2019-04-30T08:26:00.157Z,50.63
2019-04-30T08:27:01.251Z,56.25
2019-04-30T08:28:00.168Z,56.25
2019-04-30T08:29:00.174Z,56.25
2019-04-30T08:30:00.184Z,61.88
2019-04-30T08:31:00.192Z,61.88
2019-04-30T08:32:00.197Z,67.50
2019-04-30T08:33:00.201Z,73.13
2019-04-30T08:34:00.212Z,73.13
2019-04-30T08:35:01.226Z,73.13
2019-04-30T08:36:00.978Z,73.13
2019-04-30T08:37:12.455Z,84.38
2019-04-30T08:38:00.238Z,95.63
2019-04-30T08:39:00.242Z,101.25
2019-04-30T08:40:03.242Z,101.25
2019-04-30T08:41:00.805Z,118.13
2019-04-30T08:42:00.269Z,135.00
2019-04-30T08:43:00.275Z,140.63
2019-04-30T08:44:00.280Z,123.75
2019-04-30T08:45:00.299Z,106.88
2019-04-30T08:46:00.299Z,95.63
2019-04-30T08:47:00.302Z,78.75
2019-04-30T08:48:00.306Z,78.75
2019-04-30T08:49:00.558Z,78.75
2019-04-30T08:50:02.762Z,78.75
2019-04-30T08:51:00.333Z,84.38
2019-04-30T08:52:00.342Z,78.75
2019-04-30T08:53:00.730Z,84.38
2019-04-30T08:54:00.352Z,84.38
2019-04-30T08:55:12.761Z,84.38
2019-04-30T08:56:00.367Z,78.75
2019-04-30T08:57:00.375Z,84.38
2019-04-30T08:58:09.295Z,90.00
2019-04-30T08:59:00.386Z,95.63
2019-04-30T09:00:00.398Z,101.25
2019-04-30T09:01:00.402Z,90.00
2019-04-30T09:02:12.859Z,78.75
2019-04-30T09:03:00.420Z,73.13
2019-04-30T09:04:00.423Z,84.38
2019-04-30T09:05:00.569Z,78.75
2019-04-30T09:06:00.439Z,78.75
2019-04-30T09:07:00.444Z,84.38
2019-04-30T09:08:00.455Z,84.38
2019-04-30T09:09:00.462Z,90.00
2019-04-30T09:10:01.334Z,101.25
2019-04-30T09:11:00.475Z,101.25
2019-04-30T09:12:00.483Z,95.63
2019-04-30T09:13:00.491Z,90.00
2019-04-30T09:14:00.497Z,84.38
2019-04-30T09:15:00.501Z,90.00
2019-04-30T09:16:00.512Z,90.00
2019-04-30T09:17:00.518Z,95.63
2019-04-30T09:18:05.852Z,95.63
2019-04-30T09:19:00.536Z,84.38
2019-04-30T09:20:00.540Z,95.63
2019-04-30T09:21:06.008Z,112.50
2019-04-30T09:22:00.559Z,118.13
2019-04-30T09:23:00.563Z,101.25
2019-04-30T09:24:00.571Z,84.38
2019-04-30T09:25:00.578Z,78.75
2019-04-30T09:26:00.580Z,73.13
2019-04-30T09:27:00.590Z,90.00
2019-04-30T09:28:00.598Z,123.75
2019-04-30T09:29:00.606Z,146.25
2019-04-30T09:30:00.612Z,174.38
2019-04-30T09:31:00.619Z,174.38
2019-04-30T09:32:00.627Z,185.63
2019-04-30T09:33:00.633Z,208.13
2019-04-30T09:34:01.070Z,225.00
2019-04-30T09:35:00.647Z,230.63
2019-04-30T09:36:00.660Z,208.13
2019-04-30T09:37:00.664Z,191.25
2019-04-30T09:38:01.949Z,185.63
2019-04-30T09:39:01.429Z,191.25
2019-04-30T09:40:00.687Z,191.25
2019-04-30T09:41:00.696Z,196.88
2019-04-30T09:42:00.697Z,202.50
2019-04-30T09:43:00.709Z,202.50
2019-04-30T09:44:00.719Z,180.00
2019-04-30T09:45:00.723Z,151.88
2019-04-30T09:46:00.728Z,146.25
2019-04-30T09:47:00.745Z,151.88
2019-04-30T09:48:00.750Z,151.88
2019-04-30T09:49:00.761Z,140.63
2019-04-30T09:50:00.765Z,123.75
2019-04-30T09:51:01.541Z,129.38
2019-04-30T09:52:00.908Z,135.00
2019-04-30T09:53:01.097Z,135.00
2019-04-30T09:54:03.693Z,112.50
2019-04-30T09:55:01.333Z,95.63
2019-04-30T09:56:00.814Z,78.75
2019-04-30T09:57:00.818Z,73.13
2019-04-30T09:58:00.823Z,67.50
2019-04-30T09:59:00.832Z,73.13
2019-04-30T10:00:00.841Z,73.13
2019-04-30T10:01:00.850Z,67.50
2019-04-30T10:02:00.858Z,56.25
2019-04-30T10:03:01.210Z,56.25
2019-04-30T10:04:01.236Z,56.25
2019-04-30T10:05:01.199Z,61.88
2019-04-30T10:06:00.886Z,67.50
2019-04-30T10:07:00.898Z,73.13
2019-04-30T10:08:00.904Z,78.75
2019-04-30T10:09:00.914Z,90.00
2019-04-30T10:10:00.918Z,106.88
2019-04-30T10:11:00.924Z,118.13
2019-04-30T10:12:00.933Z,112.50
2019-04-30T10:13:00.942Z,118.13
2019-04-30T10:14:00.949Z,129.38
2019-04-30T10:15:00.961Z,129.38
2019-04-30T10:16:00.966Z,129.38
2019-04-30T10:17:00.980Z,135.00
2019-04-30T10:18:00.979Z,135.00
2019-04-30T10:19:01.383Z,123.75
2019-04-30T10:20:00.999Z,106.88
2019-04-30T10:21:01.004Z,95.63
2019-04-30T10:22:01.008Z,84.38
2019-04-30T10:23:01.020Z,78.75
2019-04-30T10:24:12.449Z,90.00
2019-04-30T10:25:01.035Z,95.63
2019-04-30T10:26:01.041Z,95.63
2019-04-30T10:27:01.050Z,95.63
2019-04-30T10:28:01.061Z,90.00
2019-04-30T10:29:01.078Z,84.38
2019-04-30T10:30:01.072Z,90.00
2019-04-30T10:31:01.077Z,90.00
2019-04-30T10:32:01.085Z,73.13
2019-04-30T10:33:01.098Z,78.75
2019-04-30T10:34:01.101Z,84.38
2019-04-30T10:35:01.109Z,84.38
2019-04-30T10:36:01.118Z,101.25
2019-04-30T10:37:02.986Z,118.13
2019-04-30T10:38:01.131Z,118.13
2019-04-30T10:39:01.173Z,112.50
2019-04-30T10:40:01.176Z,90.00
2019-04-30T10:41:01.159Z,67.50
2019-04-30T10:42:01.162Z,61.88
2019-04-30T10:43:01.171Z,61.88
2019-04-30T10:44:01.182Z,67.50
2019-04-30T10:45:01.192Z,67.50
2019-04-30T10:46:01.195Z,73.13
2019-04-30T10:47:01.200Z,73.13
2019-04-30T10:48:01.211Z,73.13
2019-04-30T10:49:01.218Z,73.13
2019-04-30T10:50:01.225Z,73.13
2019-04-30T10:51:01.236Z,78.75
2019-04-30T10:52:01.264Z,78.75
2019-04-30T10:53:01.252Z,78.75
2019-04-30T10:54:01.257Z,84.38
2019-04-30T10:55:01.261Z,84.38
2019-04-30T10:56:01.272Z,84.38
2019-04-30T10:57:01.292Z,90.00
2019-04-30T10:58:01.286Z,95.63
2019-04-30T10:59:01.293Z,101.25
2019-04-30T11:00:01.303Z,95.63
2019-04-30T11:01:02.018Z,106.88
2019-04-30T11:02:01.319Z,123.75
2019-04-30T11:03:01.327Z,129.38
2019-04-30T11:04:01.332Z,129.38
2019-04-30T11:05:01.342Z,151.88
2019-04-30T11:06:01.350Z,185.63
2019-04-30T11:07:01.357Z,236.25
2019-04-30T11:08:01.366Z,253.13
2019-04-30T11:09:01.374Z,264.38
2019-04-30T11:10:01.385Z,253.13
2019-04-30T11:11:01.386Z,258.75
2019-04-30T11:12:02.974Z,264.38
2019-04-30T11:13:01.401Z,270.00
2019-04-30T11:14:01.413Z,275.63
2019-04-30T11:15:01.422Z,275.63
2019-04-30T11:16:12.178Z,258.75
2019-04-30T11:17:01.700Z,247.50
2019-04-30T11:18:01.687Z,253.13
2019-04-30T11:19:01.613Z,275.63
2019-04-30T11:20:01.700Z,292.50
2019-04-30T11:21:01.713Z,298.13
2019-04-30T11:22:01.652Z,275.63
2019-04-30T11:23:13.318Z,241.88
2019-04-30T11:24:01.660Z,247.50
2019-04-30T11:25:02.699Z,270.00
2019-04-30T11:26:02.375Z,365.63
2019-04-30T11:27:02.318Z,517.50
2019-04-30T11:28:01.891Z,2295.00
2019-04-30T11:29:01.717Z,646.88
2019-04-30T11:30:04.108Z,528.75
2019-04-30T11:31:01.688Z,2143.13
2019-04-30T11:32:01.762Z,798.75
2019-04-30T11:33:01.753Z,1372.50
2019-04-30T11:34:01.580Z,601.88
2019-04-30T11:35:01.587Z,1867.50
2019-04-30T11:36:03.008Z,2250.00
2019-04-30T11:37:01.609Z,798.75
2019-04-30T11:38:01.617Z,326.25
2019-04-30T11:39:01.627Z,230.63
2019-04-30T11:40:01.649Z,281.25
2019-04-30T11:41:01.645Z,168.75
2019-04-30T11:42:01.654Z,112.50
2019-04-30T11:43:01.669Z,112.50
2019-04-30T11:44:01.676Z,129.38
2019-04-30T11:45:01.691Z,146.25
2019-04-30T11:46:01.695Z,146.25
2019-04-30T11:47:01.705Z,146.25
2019-04-30T11:48:01.792Z,185.63
2019-04-30T11:49:01.729Z,241.88
2019-04-30T11:50:01.764Z,309.38
2019-04-30T11:51:01.750Z,478.13
2019-04-30T11:52:01.756Z,1524.38
2019-04-30T11:53:19.637Z,3465.00
2019-04-30T11:54:01.773Z,3127.50
2019-04-30T11:55:01.786Z,3510.00
2019-04-30T11:56:01.798Z,3825.00
2019-04-30T11:57:01.808Z,3718.13
2019-04-30T11:58:01.821Z,3695.63
2019-04-30T11:59:01.827Z,3785.63
2019-04-30T12:00:01.842Z,1822.50
2019-04-30T12:01:01.856Z,1614.38
2019-04-30T12:02:01.863Z,3639.38
2019-04-30T12:03:01.883Z,708.75
2019-04-30T12:04:01.899Z,478.13
2019-04-30T12:05:01.938Z,309.38
2019-04-30T12:06:01.927Z,225.00
2019-04-30T12:07:01.930Z,208.13
2019-04-30T12:08:01.948Z,225.00
2019-04-30T12:09:01.969Z,281.25
2019-04-30T12:10:01.976Z,376.88
2019-04-30T12:11:01.991Z,416.25
2019-04-30T12:12:02.008Z,1051.88
2019-04-30T12:13:02.021Z,1006.88
2019-04-30T12:14:02.041Z,832.50
2019-04-30T12:15:02.811Z,860.63
2019-04-30T12:16:02.051Z,4061.25
2019-04-30T12:17:02.065Z,444.38
2019-04-30T12:18:02.081Z,4021.88
2019-04-30T12:19:02.094Z,1366.88
2019-04-30T12:20:02.113Z,2390.63
2019-04-30T12:21:02.121Z,3346.88
2019-04-30T12:22:02.138Z,337.50
2019-04-30T12:23:02.150Z,337.50
2019-04-30T12:24:02.166Z,354.38
2019-04-30T12:25:05.250Z,483.75
2019-04-30T12:26:03.057Z,663.75
2019-04-30T12:27:02.207Z,585.00
2019-04-30T12:28:02.224Z,410.63
2019-04-30T12:29:02.240Z,348.75
2019-04-30T12:30:02.248Z,326.25
2019-04-30T12:31:02.262Z,286.88
2019-04-30T12:32:02.277Z,315.00
2019-04-30T12:33:02.289Z,427.50
2019-04-30T12:34:02.301Z,405.00
2019-04-30T12:35:02.314Z,551.25
2019-04-30T12:36:02.346Z,1395.00
2019-04-30T12:37:02.342Z,540.00
2019-04-30T12:38:02.355Z,331.88
2019-04-30T12:39:02.368Z,253.13
2019-04-30T12:40:02.392Z,388.13
2019-04-30T12:41:02.400Z,1411.88
2019-04-30T12:42:02.409Z,1501.88
2019-04-30T12:43:02.423Z,1530.00
2019-04-30T12:44:02.434Z,1552.50
2019-04-30T12:45:02.440Z,1462.50
2019-04-30T12:46:05.372Z,1147.50
2019-04-30T12:47:02.471Z,826.88
2019-04-30T12:48:02.485Z,421.88
2019-04-30T12:49:02.504Z,365.63
2019-04-30T12:50:02.508Z,286.88
2019-04-30T12:51:02.529Z,253.13
2019-04-30T12:52:02.539Z,286.88
2019-04-30T12:53:02.559Z,264.38
2019-04-30T12:54:02.571Z,298.13
2019-04-30T12:55:14.462Z,461.25
2019-04-30T12:56:02.597Z,703.13
2019-04-30T12:57:02.613Z,894.38
2019-04-30T12:58:02.625Z,1215.00
2019-04-30T12:59:02.639Z,1164.38
2019-04-30T13:00:02.653Z,1147.50
2019-04-30T13:01:02.663Z,1170.00
2019-04-30T13:02:02.680Z,866.25
2019-04-30T13:03:02.693Z,534.38
2019-04-30T13:04:02.704Z,489.38
2019-04-30T13:05:02.722Z,393.75
2019-04-30T13:06:03.523Z,320.63
2019-04-30T13:07:03.459Z,258.75
2019-04-30T13:08:03.436Z,247.50
2019-04-30T13:09:03.308Z,247.50
2019-04-30T13:10:03.563Z,281.25
2019-04-30T13:11:03.295Z,337.50
2019-04-30T13:12:03.377Z,360.00
2019-04-30T13:13:03.194Z,331.88
2019-04-30T13:14:03.340Z,309.38
2019-04-30T13:15:02.863Z,298.13
2019-04-30T13:16:02.888Z,315.00
2019-04-30T13:17:02.886Z,371.25
2019-04-30T13:18:02.897Z,405.00
2019-04-30T13:19:02.909Z,405.00
2019-04-30T13:20:02.925Z,365.63
2019-04-30T13:21:03.004Z,365.63
2019-04-30T13:22:02.951Z,393.75
2019-04-30T13:23:02.961Z,984.38
2019-04-30T13:24:02.977Z,1012.50
2019-04-30T13:25:03.059Z,1006.88
2019-04-30T13:26:02.994Z,1001.25
2019-04-30T13:27:03.007Z,1001.25